sensor_id;sensor_type;location;lat;lon;timestamp;temperature;humidity
20714;DHT22;10518;50.742;4.226;2023-06-22T00:00:49;21.70;99.90
20714;DHT22;10518;50.742;4.226;2023-06-22T00:03:15;21.60;99.90
20714;DHT22;10518;50.742;4.226;2023-06-22T00:05:41;21.50;99.90
20714;DHT22;10518;50.742;4.226;2023-06-22T00:08:06;21.60;99.90
20714;DHT22;10518;50.742;4.226;2023-06-22T00:10:32;21.40;99.90
20714;DHT22;10518;50.742;4.226;2023-06-22T00:12:57;21.40;99.90
20714;DHT22;10518;50.742;4.226;2023-06-22T00:15:23;21.30;99.90
20714;DHT22;10518;50.742;4.226;2023-06-22T00:17:50;21.20;99.90
20714;DHT22;10518;50.742;4.226;2023-06-22T00:20:15;21.20;99.90
20714;DHT22;10518;50.742;4.226;2023-06-22T00:22:46;21.30;99.90
20714;DHT22;10518;50.742;4.226;2023-06-22T00:25:13;21.30;99.90
20714;DHT22;10518;50.742;4.226;2023-06-22T00:27:38;21.20;99.90
20714;DHT22;10518;50.742;4.226;2023-06-22T00:30:04;21.20;99.90
20714;DHT22;10518;50.742;4.226;2023-06-22T00:32:30;21.20;99.90
20714;DHT22;10518;50.742;4.226;2023-06-22T00:34:55;21.20;99.90
20714;DHT22;10518;50.742;4.226;2023-06-22T00:37:21;21.30;99.90
20714;DHT22;10518;50.742;4.226;2023-06-22T00:39:51;21.50;99.90
20714;DHT22;10518;50.742;4.226;2023-06-22T00:42:17;21.50;99.90
20714;DHT22;10518;50.742;4.226;2023-06-22T00:44:43;21.40;99.90
20714;DHT22;10518;50.742;4.226;2023-06-22T00:47:09;21.40;99.90
20714;DHT22;10518;50.742;4.226;2023-06-22T00:49:35;21.30;99.90
20714;DHT22;10518;50.742;4.226;2023-06-22T00:52:00;21.30;99.90
20714;DHT22;10518;50.742;4.226;2023-06-22T00:54:26;21.30;99.90
20714;DHT22;10518;50.742;4.226;2023-06-22T00:56:54;21.40;99.90
20714;DHT22;10518;50.742;4.226;2023-06-22T00:59:21;21.60;99.90
20714;DHT22;10518;50.742;4.226;2023-06-22T01:01:48;21.40;99.90
20714;DHT22;10518;50.742;4.226;2023-06-22T01:04:14;21.40;99.90
20714;DHT22;10518;50.742;4.226;2023-06-22T01:06:52;21.30;99.90
20714;DHT22;10518;50.742;4.226;2023-06-22T01:09:31;21.30;99.90
20714;DHT22;10518;50.742;4.226;2023-06-22T01:12:01;21.20;99.90
20714;DHT22;10518;50.742;4.226;2023-06-22T01:14:40;21.10;99.90
20714;DHT22;10518;50.742;4.226;2023-06-22T01:17:08;21.10;99.90
20714;DHT22;10518;50.742;4.226;2023-06-22T01:22:10;21.20;99.90
20714;DHT22;10518;50.742;4.226;2023-06-22T01:30:11;21.10;99.90
20714;DHT22;10518;50.742;4.226;2023-06-22T01:32:40;21.10;99.90
20714;DHT22;10518;50.742;4.226;2023-06-22T01:35:08;21.10;99.90
20714;DHT22;10518;50.742;4.226;2023-06-22T01:37:35;21.00;99.90
20714;DHT22;10518;50.742;4.226;2023-06-22T01:40:02;20.90;99.90
20714;DHT22;10518;50.742;4.226;2023-06-22T01:42:31;20.90;99.90
20714;DHT22;10518;50.742;4.226;2023-06-22T01:44:57;20.90;99.90
20714;DHT22;10518;50.742;4.226;2023-06-22T01:47:24;20.80;99.90
20714;DHT22;10518;50.742;4.226;2023-06-22T01:49:50;20.80;99.90
20714;DHT22;10518;50.742;4.226;2023-06-22T01:52:19;20.80;99.90
20714;DHT22;10518;50.742;4.226;2023-06-22T01:54:46;20.80;99.90
20714;DHT22;10518;50.742;4.226;2023-06-22T01:57:12;20.70;99.90
20714;DHT22;10518;50.742;4.226;2023-06-22T01:59:50;20.60;99.90
20714;DHT22;10518;50.742;4.226;2023-06-22T02:02:20;20.40;99.90
20714;DHT22;10518;50.742;4.226;2023-06-22T02:04:57;20.40;99.90
20714;DHT22;10518;50.742;4.226;2023-06-22T02:07:28;20.40;99.90
20714;DHT22;10518;50.742;4.226;2023-06-22T02:09:55;20.40;99.90
20714;DHT22;10518;50.742;4.226;2023-06-22T02:12:24;20.60;99.90
20714;DHT22;10518;50.742;4.226;2023-06-22T02:14:51;20.60;99.90
20714;DHT22;10518;50.742;4.226;2023-06-22T02:17:18;20.60;99.90
20714;DHT22;10518;50.742;4.226;2023-06-22T02:19:44;20.60;99.90
20714;DHT22;10518;50.742;4.226;2023-06-22T02:22:09;20.40;99.90
20714;DHT22;10518;50.742;4.226;2023-06-22T02:24:35;20.30;99.90
20714;DHT22;10518;50.742;4.226;2023-06-22T02:27:01;20.20;99.90
20714;DHT22;10518;50.742;4.226;2023-06-22T02:29:28;20.30;99.90
20714;DHT22;10518;50.742;4.226;2023-06-22T02:31:54;20.30;99.90
20714;DHT22;10518;50.742;4.226;2023-06-22T02:34:20;20.30;99.90
20714;DHT22;10518;50.742;4.226;2023-06-22T02:36:47;20.40;99.90
20714;DHT22;10518;50.742;4.226;2023-06-22T02:39:23;20.40;99.90
20714;DHT22;10518;50.742;4.226;2023-06-22T02:41:53;20.30;99.90
20714;DHT22;10518;50.742;4.226;2023-06-22T02:44:19;20.70;99.90
20714;DHT22;10518;50.742;4.226;2023-06-22T02:46:46;20.60;99.90
20714;DHT22;10518;50.742;4.226;2023-06-22T02:49:12;20.80;99.90
20714;DHT22;10518;50.742;4.226;2023-06-22T02:51:39;20.70;99.90
20714;DHT22;10518;50.742;4.226;2023-06-22T02:54:05;20.90;99.90
20714;DHT22;10518;50.742;4.226;2023-06-22T02:56:31;20.60;99.90
20714;DHT22;10518;50.742;4.226;2023-06-22T02:58:57;20.60;99.90
20714;DHT22;10518;50.742;4.226;2023-06-22T03:01:28;20.50;99.90
20714;DHT22;10518;50.742;4.226;2023-06-22T03:03:58;20.40;99.90
20714;DHT22;10518;50.742;4.226;2023-06-22T03:06:24;20.30;99.90
20714;DHT22;10518;50.742;4.226;2023-06-22T03:09:01;20.30;99.90
20714;DHT22;10518;50.742;4.226;2023-06-22T03:11:29;20.30;99.90
20714;DHT22;10518;50.742;4.226;2023-06-22T03:13:55;20.30;99.90
20714;DHT22;10518;50.742;4.226;2023-06-22T03:16:20;20.40;99.90
20714;DHT22;10518;50.742;4.226;2023-06-22T03:18:46;20.40;99.90
20714;DHT22;10518;50.742;4.226;2023-06-22T03:21:11;20.30;99.90
20714;DHT22;10518;50.742;4.226;2023-06-22T03:23:37;20.30;99.90
20714;DHT22;10518;50.742;4.226;2023-06-22T03:26:02;20.30;99.90
20714;DHT22;10518;50.742;4.226;2023-06-22T03:28:29;20.30;99.90
20714;DHT22;10518;50.742;4.226;2023-06-22T03:30:57;20.30;99.90
20714;DHT22;10518;50.742;4.226;2023-06-22T03:33:23;20.40;99.90
20714;DHT22;10518;50.742;4.226;2023-06-22T03:35:49;20.50;99.90
20714;DHT22;10518;50.742;4.226;2023-06-22T03:38:16;20.30;99.90
20714;DHT22;10518;50.742;4.226;2023-06-22T03:40:41;20.30;99.90
20714;DHT22;10518;50.742;4.226;2023-06-22T03:43:07;20.30;99.90
20714;DHT22;10518;50.742;4.226;2023-06-22T03:45:32;20.30;99.90
20714;DHT22;10518;50.742;4.226;2023-06-22T03:47:58;20.40;99.90
20714;DHT22;10518;50.742;4.226;2023-06-22T03:50:24;20.50;99.90
20714;DHT22;10518;50.742;4.226;2023-06-22T03:52:49;20.40;99.90
20714;DHT22;10518;50.742;4.226;2023-06-22T03:55:16;20.30;99.90
20714;DHT22;10518;50.742;4.226;2023-06-22T03:57:42;20.30;99.90
20714;DHT22;10518;50.742;4.226;2023-06-22T04:00:08;20.20;99.90
20714;DHT22;10518;50.742;4.226;2023-06-22T04:02:35;20.30;99.90
20714;DHT22;10518;50.742;4.226;2023-06-22T04:05:00;20.20;99.90
20714;DHT22;10518;50.742;4.226;2023-06-22T04:07:26;20.10;99.90
20714;DHT22;10518;50.742;4.226;2023-06-22T04:09:51;20.20;99.90
20714;DHT22;10518;50.742;4.226;2023-06-22T04:12:17;20.20;99.90
20714;DHT22;10518;50.742;4.226;2023-06-22T04:14:43;20.30;99.90
20714;DHT22;10518;50.742;4.226;2023-06-22T04:17:08;20.30;99.90
20714;DHT22;10518;50.742;4.226;2023-06-22T04:19:34;20.40;99.90
20714;DHT22;10518;50.742;4.226;2023-06-22T04:21:59;20.40;99.90
20714;DHT22;10518;50.742;4.226;2023-06-22T04:24:25;20.40;99.90
20714;DHT22;10518;50.742;4.226;2023-06-22T04:26:51;20.40;99.90
20714;DHT22;10518;50.742;4.226;2023-06-22T04:29:20;20.50;99.90
20714;DHT22;10518;50.742;4.226;2023-06-22T04:31:45;20.60;99.90
20714;DHT22;10518;50.742;4.226;2023-06-22T04:34:16;20.50;99.90
20714;DHT22;10518;50.742;4.226;2023-06-22T04:36:42;20.60;99.90
20714;DHT22;10518;50.742;4.226;2023-06-22T04:39:09;20.60;99.90
20714;DHT22;10518;50.742;4.226;2023-06-22T04:41:39;20.50;99.90
20714;DHT22;10518;50.742;4.226;2023-06-22T04:44:15;20.50;99.90
20714;DHT22;10518;50.742;4.226;2023-06-22T04:46:50;20.50;99.90
20714;DHT22;10518;50.742;4.226;2023-06-22T04:49:20;20.60;99.90
20714;DHT22;10518;50.742;4.226;2023-06-22T04:51:46;20.70;99.90
20714;DHT22;10518;50.742;4.226;2023-06-22T04:54:11;20.80;99.90
20714;DHT22;10518;50.742;4.226;2023-06-22T04:56:37;20.80;99.90
20714;DHT22;10518;50.742;4.226;2023-06-22T04:59:03;20.70;99.90
20714;DHT22;10518;50.742;4.226;2023-06-22T05:01:29;20.70;99.90
20714;DHT22;10518;50.742;4.226;2023-06-22T05:03:58;20.70;99.90
20714;DHT22;10518;50.742;4.226;2023-06-22T05:06:26;20.70;99.90
20714;DHT22;10518;50.742;4.226;2023-06-22T05:08:54;20.90;99.90
20714;DHT22;10518;50.742;4.226;2023-06-22T05:11:25;20.90;99.90
20714;DHT22;10518;50.742;4.226;2023-06-22T05:13:50;21.00;99.90
20714;DHT22;10518;50.742;4.226;2023-06-22T05:16:16;21.00;99.90
20714;DHT22;10518;50.742;4.226;2023-06-22T05:18:42;20.60;99.90
20714;DHT22;10518;50.742;4.226;2023-06-22T05:21:08;20.50;99.90
20714;DHT22;10518;50.742;4.226;2023-06-22T05:23:34;20.80;99.90
20714;DHT22;10518;50.742;4.226;2023-06-22T05:26:00;20.80;99.90
20714;DHT22;10518;50.742;4.226;2023-06-22T05:28:25;20.90;99.90
20714;DHT22;10518;50.742;4.226;2023-06-22T05:30:51;20.90;99.90
20714;DHT22;10518;50.742;4.226;2023-06-22T05:33:17;20.80;99.90
20714;DHT22;10518;50.742;4.226;2023-06-22T05:35:42;20.90;99.90
20714;DHT22;10518;50.742;4.226;2023-06-22T05:38:08;20.80;99.90
20714;DHT22;10518;50.742;4.226;2023-06-22T05:40:34;20.70;99.90
20714;DHT22;10518;50.742;4.226;2023-06-22T05:42:59;20.90;99.90
20714;DHT22;10518;50.742;4.226;2023-06-22T05:45:27;20.50;99.90
20714;DHT22;10518;50.742;4.226;2023-06-22T05:47:52;20.60;99.90
20714;DHT22;10518;50.742;4.226;2023-06-22T05:50:18;20.50;99.90
20714;DHT22;10518;50.742;4.226;2023-06-22T05:52:44;20.50;99.90
20714;DHT22;10518;50.742;4.226;2023-06-22T05:55:09;20.40;99.90
20714;DHT22;10518;50.742;4.226;2023-06-22T05:57:35;20.20;99.90
20714;DHT22;10518;50.742;4.226;2023-06-22T06:00:00;20.20;99.90
20714;DHT22;10518;50.742;4.226;2023-06-22T06:02:26;20.10;99.90
20714;DHT22;10518;50.742;4.226;2023-06-22T06:04:52;20.10;99.90
20714;DHT22;10518;50.742;4.226;2023-06-22T06:07:18;20.20;99.90
20714;DHT22;10518;50.742;4.226;2023-06-22T06:09:44;20.20;99.90
20714;DHT22;10518;50.742;4.226;2023-06-22T06:12:09;20.30;99.90
20714;DHT22;10518;50.742;4.226;2023-06-22T06:14:35;20.30;99.90
20714;DHT22;10518;50.742;4.226;2023-06-22T06:17:00;20.30;99.90
20714;DHT22;10518;50.742;4.226;2023-06-22T06:19:26;20.30;99.90
20714;DHT22;10518;50.742;4.226;2023-06-22T06:21:52;20.70;99.90
20714;DHT22;10518;50.742;4.226;2023-06-22T06:24:17;20.90;99.90
20714;DHT22;10518;50.742;4.226;2023-06-22T06:26:43;21.10;99.90
20714;DHT22;10518;50.742;4.226;2023-06-22T06:29:08;21.10;99.90
20714;DHT22;10518;50.742;4.226;2023-06-22T06:31:34;21.20;99.90
20714;DHT22;10518;50.742;4.226;2023-06-22T06:34:00;21.20;99.90
20714;DHT22;10518;50.742;4.226;2023-06-22T06:36:26;21.50;99.90
20714;DHT22;10518;50.742;4.226;2023-06-22T06:38:51;21.40;99.90
20714;DHT22;10518;50.742;4.226;2023-06-22T06:41:17;21.80;99.90
20714;DHT22;10518;50.742;4.226;2023-06-22T06:43:43;21.90;99.90
20714;DHT22;10518;50.742;4.226;2023-06-22T06:46:09;21.60;99.90
20714;DHT22;10518;50.742;4.226;2023-06-22T06:48:35;21.40;99.90
20714;DHT22;10518;50.742;4.226;2023-06-22T06:51:00;21.50;99.90
20714;DHT22;10518;50.742;4.226;2023-06-22T06:53:26;21.50;99.90
20714;DHT22;10518;50.742;4.226;2023-06-22T06:55:52;21.80;99.90
20714;DHT22;10518;50.742;4.226;2023-06-22T06:58:18;22.00;99.90
20714;DHT22;10518;50.742;4.226;2023-06-22T07:00:43;22.20;99.90
20714;DHT22;10518;50.742;4.226;2023-06-22T07:03:09;22.00;99.90
20714;DHT22;10518;50.742;4.226;2023-06-22T07:05:35;22.10;99.90
20714;DHT22;10518;50.742;4.226;2023-06-22T07:08:01;22.30;99.90
20714;DHT22;10518;50.742;4.226;2023-06-22T07:10:27;22.50;99.90
20714;DHT22;10518;50.742;4.226;2023-06-22T07:12:53;22.50;99.90
20714;DHT22;10518;50.742;4.226;2023-06-22T07:15:18;22.60;99.90
20714;DHT22;10518;50.742;4.226;2023-06-22T07:17:44;22.80;99.90
20714;DHT22;10518;50.742;4.226;2023-06-22T07:20:10;22.90;99.90
20714;DHT22;10518;50.742;4.226;2023-06-22T07:22:42;23.20;99.90
20714;DHT22;10518;50.742;4.226;2023-06-22T07:25:08;23.30;99.90
20714;DHT22;10518;50.742;4.226;2023-06-22T07:27:56;23.20;99.90
20714;DHT22;10518;50.742;4.226;2023-06-22T07:30:22;23.10;99.90
20714;DHT22;10518;50.742;4.226;2023-06-22T07:32:48;22.90;99.90
20714;DHT22;10518;50.742;4.226;2023-06-22T07:35:14;22.70;99.90
20714;DHT22;10518;50.742;4.226;2023-06-22T07:37:42;22.60;99.90
20714;DHT22;10518;50.742;4.226;2023-06-22T07:40:08;22.50;99.90
20714;DHT22;10518;50.742;4.226;2023-06-22T07:42:34;22.30;99.90
20714;DHT22;10518;50.742;4.226;2023-06-22T07:45:00;22.30;99.90
20714;DHT22;10518;50.742;4.226;2023-06-22T07:47:27;22.10;99.90
20714;DHT22;10518;50.742;4.226;2023-06-22T07:49:58;21.90;99.90
20714;DHT22;10518;50.742;4.226;2023-06-22T07:52:24;21.80;99.90
20714;DHT22;10518;50.742;4.226;2023-06-22T07:54:51;21.90;99.90
20714;DHT22;10518;50.742;4.226;2023-06-22T07:57:16;21.90;99.90
20714;DHT22;10518;50.742;4.226;2023-06-22T07:59:42;21.80;99.90
20714;DHT22;10518;50.742;4.226;2023-06-22T08:02:08;22.10;99.90
20714;DHT22;10518;50.742;4.226;2023-06-22T08:04:34;22.30;99.90
20714;DHT22;10518;50.742;4.226;2023-06-22T08:07:00;22.20;99.90
20714;DHT22;10518;50.742;4.226;2023-06-22T08:09:29;22.40;99.90
20714;DHT22;10518;50.742;4.226;2023-06-22T08:11:55;22.60;99.90
20714;DHT22;10518;50.742;4.226;2023-06-22T08:14:24;22.50;99.90
20714;DHT22;10518;50.742;4.226;2023-06-22T08:16:50;22.10;99.90
20714;DHT22;10518;50.742;4.226;2023-06-22T08:19:16;22.40;99.90
20714;DHT22;10518;50.742;4.226;2023-06-22T08:21:42;22.40;99.90
20714;DHT22;10518;50.742;4.226;2023-06-22T08:24:08;22.20;99.90
20714;DHT22;10518;50.742;4.226;2023-06-22T08:26:34;22.50;99.90
20714;DHT22;10518;50.742;4.226;2023-06-22T08:29:03;22.70;99.90
20714;DHT22;10518;50.742;4.226;2023-06-22T08:31:28;22.50;99.90
20714;DHT22;10518;50.742;4.226;2023-06-22T08:33:54;22.50;99.90
20714;DHT22;10518;50.742;4.226;2023-06-22T08:36:20;22.60;99.90
20714;DHT22;10518;50.742;4.226;2023-06-22T08:38:46;22.20;99.90
20714;DHT22;10518;50.742;4.226;2023-06-22T08:41:15;22.20;99.90
20714;DHT22;10518;50.742;4.226;2023-06-22T08:43:41;22.20;99.90
20714;DHT22;10518;50.742;4.226;2023-06-22T08:46:08;22.40;99.90
20714;DHT22;10518;50.742;4.226;2023-06-22T08:48:34;22.30;99.90
20714;DHT22;10518;50.742;4.226;2023-06-22T08:50:59;22.20;99.90
20714;DHT22;10518;50.742;4.226;2023-06-22T08:53:25;22.50;99.90
20714;DHT22;10518;50.742;4.226;2023-06-22T08:55:50;22.20;99.90
20714;DHT22;10518;50.742;4.226;2023-06-22T08:58:16;22.10;99.90
20714;DHT22;10518;50.742;4.226;2023-06-22T09:00:41;22.10;99.90
20714;DHT22;10518;50.742;4.226;2023-06-22T09:03:07;22.10;99.90
20714;DHT22;10518;50.742;4.226;2023-06-22T09:05:33;22.10;99.90
20714;DHT22;10518;50.742;4.226;2023-06-22T09:07:59;22.20;99.90
20714;DHT22;10518;50.742;4.226;2023-06-22T09:10:25;22.10;99.90
20714;DHT22;10518;50.742;4.226;2023-06-22T09:12:51;22.20;99.90
20714;DHT22;10518;50.742;4.226;2023-06-22T09:15:16;22.50;99.90
20714;DHT22;10518;50.742;4.226;2023-06-22T09:17:42;22.60;99.90
20714;DHT22;10518;50.742;4.226;2023-06-22T09:20:09;22.50;99.90
20714;DHT22;10518;50.742;4.226;2023-06-22T09:22:36;22.30;99.90
20714;DHT22;10518;50.742;4.226;2023-06-22T09:25:02;22.60;99.90
20714;DHT22;10518;50.742;4.226;2023-06-22T09:27:28;22.50;99.90
20714;DHT22;10518;50.742;4.226;2023-06-22T09:29:54;22.20;99.90
20714;DHT22;10518;50.742;4.226;2023-06-22T09:32:19;22.40;99.90
20714;DHT22;10518;50.742;4.226;2023-06-22T09:34:45;22.20;99.90
20714;DHT22;10518;50.742;4.226;2023-06-22T09:37:11;22.10;99.90
20714;DHT22;10518;50.742;4.226;2023-06-22T09:39:37;22.00;99.90
20714;DHT22;10518;50.742;4.226;2023-06-22T09:42:03;22.00;99.90
20714;DHT22;10518;50.742;4.226;2023-06-22T09:44:30;21.90;99.90
20714;DHT22;10518;50.742;4.226;2023-06-22T09:46:56;21.00;99.90
20714;DHT22;10518;50.742;4.226;2023-06-22T09:49:22;20.50;99.90
20714;DHT22;10518;50.742;4.226;2023-06-22T09:51:48;20.30;99.90
20714;DHT22;10518;50.742;4.226;2023-06-22T09:54:15;20.40;99.90
20714;DHT22;10518;50.742;4.226;2023-06-22T09:56:40;20.30;99.90
20714;DHT22;10518;50.742;4.226;2023-06-22T09:59:06;19.90;99.90
20714;DHT22;10518;50.742;4.226;2023-06-22T10:01:31;19.60;99.90
20714;DHT22;10518;50.742;4.226;2023-06-22T10:03:57;19.40;99.90
20714;DHT22;10518;50.742;4.226;2023-06-22T10:06:23;19.40;99.90
20714;DHT22;10518;50.742;4.226;2023-06-22T10:08:51;19.10;99.90
20714;DHT22;10518;50.742;4.226;2023-06-22T10:11:17;19.00;99.90
20714;DHT22;10518;50.742;4.226;2023-06-22T10:13:42;18.90;99.90
20714;DHT22;10518;50.742;4.226;2023-06-22T10:16:08;18.80;99.90
20714;DHT22;10518;50.742;4.226;2023-06-22T10:18:34;18.60;99.90
20714;DHT22;10518;50.742;4.226;2023-06-22T10:20:59;18.50;99.90
20714;DHT22;10518;50.742;4.226;2023-06-22T10:23:25;18.60;99.90
20714;DHT22;10518;50.742;4.226;2023-06-22T10:25:50;18.50;99.90
20714;DHT22;10518;50.742;4.226;2023-06-22T10:28:16;18.40;99.90
20714;DHT22;10518;50.742;4.226;2023-06-22T10:30:42;18.40;99.90
20714;DHT22;10518;50.742;4.226;2023-06-22T10:33:09;18.60;99.90
20714;DHT22;10518;50.742;4.226;2023-06-22T10:35:35;18.70;99.90
20714;DHT22;10518;50.742;4.226;2023-06-22T10:38:03;18.50;99.90
20714;DHT22;10518;50.742;4.226;2023-06-22T10:40:28;18.40;99.90
20714;DHT22;10518;50.742;4.226;2023-06-22T10:42:54;18.40;99.90
20714;DHT22;10518;50.742;4.226;2023-06-22T10:45:19;18.40;99.90
20714;DHT22;10518;50.742;4.226;2023-06-22T10:47:45;18.60;99.90
20714;DHT22;10518;50.742;4.226;2023-06-22T10:50:11;18.50;99.90
20714;DHT22;10518;50.742;4.226;2023-06-22T10:52:37;18.60;99.90
20714;DHT22;10518;50.742;4.226;2023-06-22T10:55:02;18.70;99.90
20714;DHT22;10518;50.742;4.226;2023-06-22T10:57:28;18.80;99.90
20714;DHT22;10518;50.742;4.226;2023-06-22T10:59:54;18.90;99.90
20714;DHT22;10518;50.742;4.226;2023-06-22T11:02:19;19.10;99.90
20714;DHT22;10518;50.742;4.226;2023-06-22T11:04:45;19.30;99.90
20714;DHT22;10518;50.742;4.226;2023-06-22T11:07:11;19.10;99.90
20714;DHT22;10518;50.742;4.226;2023-06-22T11:09:37;19.10;99.90
20714;DHT22;10518;50.742;4.226;2023-06-22T11:12:04;19.10;99.90
20714;DHT22;10518;50.742;4.226;2023-06-22T11:14:29;19.20;99.90
20714;DHT22;10518;50.742;4.226;2023-06-22T11:16:55;19.30;99.90
20714;DHT22;10518;50.742;4.226;2023-06-22T11:19:21;19.10;99.90
20714;DHT22;10518;50.742;4.226;2023-06-22T11:21:47;19.00;99.90
20714;DHT22;10518;50.742;4.226;2023-06-22T11:24:12;19.20;99.90
20714;DHT22;10518;50.742;4.226;2023-06-22T11:26:38;19.20;99.90
20714;DHT22;10518;50.742;4.226;2023-06-22T11:29:03;19.10;99.90
20714;DHT22;10518;50.742;4.226;2023-06-22T11:31:31;18.80;99.90
20714;DHT22;10518;50.742;4.226;2023-06-22T11:33:57;18.80;99.90
20714;DHT22;10518;50.742;4.226;2023-06-22T11:36:23;18.80;99.90
20714;DHT22;10518;50.742;4.226;2023-06-22T11:38:48;18.60;99.90
20714;DHT22;10518;50.742;4.226;2023-06-22T11:41:14;18.80;99.90
20714;DHT22;10518;50.742;4.226;2023-06-22T11:43:40;19.00;99.90
20714;DHT22;10518;50.742;4.226;2023-06-22T11:46:06;19.20;99.90
20714;DHT22;10518;50.742;4.226;2023-06-22T11:48:31;18.90;99.90
20714;DHT22;10518;50.742;4.226;2023-06-22T11:50:58;18.60;99.90
20714;DHT22;10518;50.742;4.226;2023-06-22T11:53:25;18.80;99.90
20714;DHT22;10518;50.742;4.226;2023-06-22T11:55:51;19.00;99.90
20714;DHT22;10518;50.742;4.226;2023-06-22T11:58:18;19.00;99.90
20714;DHT22;10518;50.742;4.226;2023-06-22T12:00:43;18.90;99.90
20714;DHT22;10518;50.742;4.226;2023-06-22T12:03:10;18.80;99.90
20714;DHT22;10518;50.742;4.226;2023-06-22T12:05:36;18.70;99.90
20714;DHT22;10518;50.742;4.226;2023-06-22T12:08:02;18.80;99.90
20714;DHT22;10518;50.742;4.226;2023-06-22T12:10:28;18.60;99.90
20714;DHT22;10518;50.742;4.226;2023-06-22T12:12:54;18.80;99.90
20714;DHT22;10518;50.742;4.226;2023-06-22T12:15:19;18.80;99.90
20714;DHT22;10518;50.742;4.226;2023-06-22T12:17:45;18.70;99.90
20714;DHT22;10518;50.742;4.226;2023-06-22T12:20:11;18.60;99.90
20714;DHT22;10518;50.742;4.226;2023-06-22T12:22:36;18.40;99.90
20714;DHT22;10518;50.742;4.226;2023-06-22T12:25:03;18.40;99.90
20714;DHT22;10518;50.742;4.226;2023-06-22T12:27:29;18.30;99.90
20714;DHT22;10518;50.742;4.226;2023-06-22T12:29:56;18.40;99.90
20714;DHT22;10518;50.742;4.226;2023-06-22T12:32:21;18.50;99.90
20714;DHT22;10518;50.742;4.226;2023-06-22T12:34:47;18.50;99.90
20714;DHT22;10518;50.742;4.226;2023-06-22T12:37:13;18.40;99.90
20714;DHT22;10518;50.742;4.226;2023-06-22T12:39:40;18.30;99.90
20714;DHT22;10518;50.742;4.226;2023-06-22T12:42:06;18.50;99.90
20714;DHT22;10518;50.742;4.226;2023-06-22T12:44:34;18.70;99.90
20714;DHT22;10518;50.742;4.226;2023-06-22T12:47:00;18.90;99.90
20714;DHT22;10518;50.742;4.226;2023-06-22T12:49:25;18.70;99.90
20714;DHT22;10518;50.742;4.226;2023-06-22T12:51:51;18.70;99.90
20714;DHT22;10518;50.742;4.226;2023-06-22T12:54:16;18.70;99.90
20714;DHT22;10518;50.742;4.226;2023-06-22T12:56:42;18.70;99.90
20714;DHT22;10518;50.742;4.226;2023-06-22T12:59:10;18.70;99.90
20714;DHT22;10518;50.742;4.226;2023-06-22T13:01:35;18.70;99.90
20714;DHT22;10518;50.742;4.226;2023-06-22T13:04:02;18.80;99.90
20714;DHT22;10518;50.742;4.226;2023-06-22T13:06:28;18.80;99.90
20714;DHT22;10518;50.742;4.226;2023-06-22T13:08:53;19.00;99.90
20714;DHT22;10518;50.742;4.226;2023-06-22T13:11:19;19.00;99.90
20714;DHT22;10518;50.742;4.226;2023-06-22T13:13:45;19.00;99.90
20714;DHT22;10518;50.742;4.226;2023-06-22T13:16:12;19.00;99.90
20714;DHT22;10518;50.742;4.226;2023-06-22T13:18:37;19.00;99.90
20714;DHT22;10518;50.742;4.226;2023-06-22T13:21:03;18.80;99.90
20714;DHT22;10518;50.742;4.226;2023-06-22T13:23:29;18.60;99.90
20714;DHT22;10518;50.742;4.226;2023-06-22T13:25:55;18.60;99.90
20714;DHT22;10518;50.742;4.226;2023-06-22T13:28:21;18.90;99.90
20714;DHT22;10518;50.742;4.226;2023-06-22T13:30:47;18.80;99.90
20714;DHT22;10518;50.742;4.226;2023-06-22T13:33:16;18.80;99.90
20714;DHT22;10518;50.742;4.226;2023-06-22T13:35:42;18.60;99.90
20714;DHT22;10518;50.742;4.226;2023-06-22T13:38:10;18.50;99.90
20714;DHT22;10518;50.742;4.226;2023-06-22T13:40:36;18.40;99.90
20714;DHT22;10518;50.742;4.226;2023-06-22T13:43:03;18.50;99.90
20714;DHT22;10518;50.742;4.226;2023-06-22T13:45:29;18.50;99.90
20714;DHT22;10518;50.742;4.226;2023-06-22T13:47:55;18.70;99.90
20714;DHT22;10518;50.742;4.226;2023-06-22T13:50:20;18.60;99.90
20714;DHT22;10518;50.742;4.226;2023-06-22T13:52:46;18.40;99.90
20714;DHT22;10518;50.742;4.226;2023-06-22T13:55:12;18.50;99.90
20714;DHT22;10518;50.742;4.226;2023-06-22T13:57:39;18.50;99.90
20714;DHT22;10518;50.742;4.226;2023-06-22T14:00:05;18.70;99.90
20714;DHT22;10518;50.742;4.226;2023-06-22T14:02:31;18.80;99.90
20714;DHT22;10518;50.742;4.226;2023-06-22T14:04:57;18.70;99.90
20714;DHT22;10518;50.742;4.226;2023-06-22T14:07:22;18.60;99.90
20714;DHT22;10518;50.742;4.226;2023-06-22T14:09:50;18.50;99.90
20714;DHT22;10518;50.742;4.226;2023-06-22T14:12:15;18.60;99.90
20714;DHT22;10518;50.742;4.226;2023-06-22T14:14:43;18.60;99.90
20714;DHT22;10518;50.742;4.226;2023-06-22T14:17:09;18.50;99.90
20714;DHT22;10518;50.742;4.226;2023-06-22T14:19:35;18.60;99.90
20714;DHT22;10518;50.742;4.226;2023-06-22T14:22:01;18.60;99.90
20714;DHT22;10518;50.742;4.226;2023-06-22T14:24:27;18.60;99.90
20714;DHT22;10518;50.742;4.226;2023-06-22T14:26:54;18.50;99.90
20714;DHT22;10518;50.742;4.226;2023-06-22T14:29:21;18.50;99.90
20714;DHT22;10518;50.742;4.226;2023-06-22T14:31:47;18.50;99.90
20714;DHT22;10518;50.742;4.226;2023-06-22T14:34:13;18.30;99.90
20714;DHT22;10518;50.742;4.226;2023-06-22T14:36:39;18.40;99.90
20714;DHT22;10518;50.742;4.226;2023-06-22T14:39:04;18.40;99.90
20714;DHT22;10518;50.742;4.226;2023-06-22T14:41:30;18.40;99.90
20714;DHT22;10518;50.742;4.226;2023-06-22T14:43:56;18.50;99.90
20714;DHT22;10518;50.742;4.226;2023-06-22T14:46:22;18.30;99.90
20714;DHT22;10518;50.742;4.226;2023-06-22T14:48:48;18.10;99.90
20714;DHT22;10518;50.742;4.226;2023-06-22T14:51:14;18.30;99.90
20714;DHT22;10518;50.742;4.226;2023-06-22T14:53:40;18.40;99.90
20714;DHT22;10518;50.742;4.226;2023-06-22T14:56:05;18.50;99.90
20714;DHT22;10518;50.742;4.226;2023-06-22T14:58:31;18.80;99.90
20714;DHT22;10518;50.742;4.226;2023-06-22T15:01:04;18.90;99.90
20714;DHT22;10518;50.742;4.226;2023-06-22T15:03:31;18.90;99.90
20714;DHT22;10518;50.742;4.226;2023-06-22T15:05:58;19.10;99.90
20714;DHT22;10518;50.742;4.226;2023-06-22T15:08:24;19.10;99.90
20714;DHT22;10518;50.742;4.226;2023-06-22T15:10:51;19.10;99.90
20714;DHT22;10518;50.742;4.226;2023-06-22T15:13:17;19.10;99.90
20714;DHT22;10518;50.742;4.226;2023-06-22T15:15:45;19.00;99.90
20714;DHT22;10518;50.742;4.226;2023-06-22T15:18:11;18.90;99.90
20714;DHT22;10518;50.742;4.226;2023-06-22T15:20:36;19.00;99.90
20714;DHT22;10518;50.742;4.226;2023-06-22T15:23:02;19.20;99.90
20714;DHT22;10518;50.742;4.226;2023-06-22T15:25:27;19.10;99.90
20714;DHT22;10518;50.742;4.226;2023-06-22T15:27:53;19.10;99.90
20714;DHT22;10518;50.742;4.226;2023-06-22T15:30:19;19.20;99.90
20714;DHT22;10518;50.742;4.226;2023-06-22T15:32:45;19.10;99.90